sensor_id;sensor_type;location;lat;lon;timestamp;P1;durP1;ratioP1;P2;durP2;ratioP2
54464;SDS011;40374;49.480;20.016;2022-07-06T00:02:24;1.05;;;1.05;;
54464;SDS011;40374;49.480;20.016;2022-07-06T00:04:52;1.00;;;1.00;;
54464;SDS011;40374;49.480;20.016;2022-07-06T00:07:20;1.30;;;1.20;;
54464;SDS011;40374;49.480;20.016;2022-07-06T00:09:49;1.30;;;1.20;;
54464;SDS011;40374;49.480;20.016;2022-07-06T00:12:17;1.15;;;1.08;;
54464;SDS011;40374;49.480;20.016;2022-07-06T00:14:44;2.15;;;1.58;;
54464;SDS011;40374;49.480;20.016;2022-07-06T00:17:12;1.50;;;1.40;;
54464;SDS011;40374;49.480;20.016;2022-07-06T00:19:39;1.60;;;1.50;;
54464;SDS011;40374;49.480;20.016;2022-07-06T00:22:07;1.70;;;1.55;;
54464;SDS011;40374;49.480;20.016;2022-07-06T00:24:34;4.07;;;2.05;;
54464;SDS011;40374;49.480;20.016;2022-07-06T00:27:02;2.45;;;2.25;;
54464;SDS011;40374;49.480;20.016;2022-07-06T00:29:30;2.80;;;2.60;;
54464;SDS011;40374;49.480;20.016;2022-07-06T00:31:59;3.17;;;2.45;;
54464;SDS011;40374;49.480;20.016;2022-07-06T00:34:27;3.10;;;2.80;;
54464;SDS011;40374;49.480;20.016;2022-07-06T00:36:54;4.43;;;2.67;;
54464;SDS011;40374;49.480;20.016;2022-07-06T00:39:21;3.25;;;2.92;;
54464;SDS011;40374;49.480;20.016;2022-07-06T00:41:50;3.22;;;2.95;;
54464;SDS011;40374;49.480;20.016;2022-07-06T00:44:18;6.20;;;3.25;;
54464;SDS011;40374;49.480;20.016;2022-07-06T00:46:45;2.70;;;2.47;;
54464;SDS011;40374;49.480;20.016;2022-07-06T00:49:13;5.18;;;3.70;;
54464;SDS011;40374;49.480;20.016;2022-07-06T00:51:59;3.60;;;3.30;;
54464;SDS011;40374;49.480;20.016;2022-07-06T00:54:29;6.35;;;3.60;;
54464;SDS011;40374;49.480;20.016;2022-07-06T00:56:58;3.97;;;3.67;;
54464;SDS011;40374;49.480;20.016;2022-07-06T00:59:25;4.00;;;3.60;;
54464;SDS011;40374;49.480;20.016;2022-07-06T01:01:54;4.00;;;3.63;;
54464;SDS011;40374;49.480;20.016;2022-07-06T01:04:22;4.03;;;3.63;;
54464;SDS011;40374;49.480;20.016;2022-07-06T01:06:50;6.20;;;3.88;;
54464;SDS011;40374;49.480;20.016;2022-07-06T01:09:18;4.35;;;3.92;;
54464;SDS011;40374;49.480;20.016;2022-07-06T01:11:45;4.80;;;4.40;;
54464;SDS011;40374;49.480;20.016;2022-07-06T01:14:13;5.45;;;4.95;;
54464;SDS011;40374;49.480;20.016;2022-07-06T01:16:42;5.47;;;4.93;;
54464;SDS011;40374;49.480;20.016;2022-07-06T01:19:10;5.57;;;5.00;;
54464;SDS011;40374;49.480;20.016;2022-07-06T01:21:38;9.80;;;5.18;;
54464;SDS011;40374;49.480;20.016;2022-07-06T01:24:06;6.55;;;5.95;;
54464;SDS011;40374;49.480;20.016;2022-07-06T01:26:33;5.95;;;5.35;;
54464;SDS011;40374;49.480;20.016;2022-07-06T01:29:01;6.00;;;5.22;;
54464;SDS011;40374;49.480;20.016;2022-07-06T01:31:28;7.80;;;6.05;;
54464;SDS011;40374;49.480;20.016;2022-07-06T01:33:58;8.32;;;6.13;;
54464;SDS011;40374;49.480;20.016;2022-07-06T01:36:26;8.20;;;6.22;;
54464;SDS011;40374;49.480;20.016;2022-07-06T01:38:54;6.85;;;6.15;;
54464;SDS011;40374;49.480;20.016;2022-07-06T01:41:26;9.40;;;6.13;;
54464;SDS011;40374;49.480;20.016;2022-07-06T01:43:54;7.18;;;6.47;;
54464;SDS011;40374;49.480;20.016;2022-07-06T01:46:22;6.95;;;6.25;;
54464;SDS011;40374;49.480;20.016;2022-07-06T01:48:49;6.45;;;5.82;;
54464;SDS011;40374;49.480;20.016;2022-07-06T01:51:17;7.13;;;6.38;;
54464;SDS011;40374;49.480;20.016;2022-07-06T01:53:45;6.30;;;5.70;;
54464;SDS011;40374;49.480;20.016;2022-07-06T01:56:15;6.65;;;5.78;;
54464;SDS011;40374;49.480;20.016;2022-07-06T01:58:46;9.18;;;6.57;;
54464;SDS011;40374;49.480;20.016;2022-07-06T02:01:16;6.10;;;5.50;;
54464;SDS011;40374;49.480;20.016;2022-07-06T02:03:46;7.93;;;5.90;;
54464;SDS011;40374;49.480;20.016;2022-07-06T02:06:14;8.60;;;6.15;;
54464;SDS011;40374;49.480;20.016;2022-07-06T02:08:45;7.95;;;6.10;;
54464;SDS011;40374;49.480;20.016;2022-07-06T02:11:12;12.05;;;6.90;;
54464;SDS011;40374;49.480;20.016;2022-07-06T02:13:42;7.65;;;6.47;;
54464;SDS011;40374;49.480;20.016;2022-07-06T02:16:11;9.75;;;7.50;;
54464;SDS011;40374;49.480;20.016;2022-07-06T02:18:38;9.18;;;8.10;;
54464;SDS011;40374;49.480;20.016;2022-07-06T02:21:06;8.63;;;7.63;;
54464;SDS011;40374;49.480;20.016;2022-07-06T02:23:34;11.05;;;8.63;;
54464;SDS011;40374;49.480;20.016;2022-07-06T02:26:01;11.77;;;7.85;;
54464;SDS011;40374;49.480;20.016;2022-07-06T02:28:31;9.98;;;7.85;;
54464;SDS011;40374;49.480;20.016;2022-07-06T02:30:58;9.07;;;7.50;;
54464;SDS011;40374;49.480;20.016;2022-07-06T02:33:27;8.98;;;8.07;;
54464;SDS011;40374;49.480;20.016;2022-07-06T02:35:55;8.57;;;7.65;;
54464;SDS011;40374;49.480;20.016;2022-07-06T02:38:22;7.47;;;6.72;;
54464;SDS011;40374;49.480;20.016;2022-07-06T02:40:51;8.63;;;7.57;;
54464;SDS011;40374;49.480;20.016;2022-07-06T02:43:18;8.63;;;6.70;;
54464;SDS011;40374;49.480;20.016;2022-07-06T02:45:46;7.68;;;6.25;;
54464;SDS011;40374;49.480;20.016;2022-07-06T02:48:14;6.63;;;5.97;;
54464;SDS011;40374;49.480;20.016;2022-07-06T02:50:42;7.25;;;6.53;;
54464;SDS011;40374;49.480;20.016;2022-07-06T02:53:10;7.93;;;6.15;;
54464;SDS011;40374;49.480;20.016;2022-07-06T02:55:37;8.95;;;7.18;;
54464;SDS011;40374;49.480;20.016;2022-07-06T02:58:05;8.13;;;7.28;;
54464;SDS011;40374;49.480;20.016;2022-07-06T03:00:33;8.98;;;6.65;;
54464;SDS011;40374;49.480;20.016;2022-07-06T03:03:02;7.53;;;6.60;;
54464;SDS011;40374;49.480;20.016;2022-07-06T03:05:30;9.85;;;7.05;;
54464;SDS011;40374;49.480;20.016;2022-07-06T03:07:58;8.20;;;7.15;;
54464;SDS011;40374;49.480;20.016;2022-07-06T03:10:25;8.60;;;6.38;;
54464;SDS011;40374;49.480;20.016;2022-07-06T03:12:56;6.80;;;6.10;;
54464;SDS011;40374;49.480;20.016;2022-07-06T03:15:24;7.03;;;6.28;;
54464;SDS011;40374;49.480;20.016;2022-07-06T03:17:51;10.45;;;6.60;;
54464;SDS011;40374;49.480;20.016;2022-07-06T03:20:19;9.23;;;5.90;;
54464;SDS011;40374;49.480;20.016;2022-07-06T03:22:47;6.65;;;5.95;;
54464;SDS011;40374;49.480;20.016;2022-07-06T03:25:15;6.82;;;6.15;;
54464;SDS011;40374;49.480;20.016;2022-07-06T03:27:43;6.45;;;5.85;;
54464;SDS011;40374;49.480;20.016;2022-07-06T03:30:12;6.10;;;5.50;;
54464;SDS011;40374;49.480;20.016;2022-07-06T03:32:46;7.05;;;6.35;;
54464;SDS011;40374;49.480;20.016;2022-07-06T03:35:14;8.52;;;6.00;;
54464;SDS011;40374;49.480;20.016;2022-07-06T03:37:43;7.07;;;6.38;;
54464;SDS011;40374;49.480;20.016;2022-07-06T03:40:11;7.88;;;6.80;;
54464;SDS011;40374;49.480;20.016;2022-07-06T03:42:39;7.18;;;6.53;;
54464;SDS011;40374;49.480;20.016;2022-07-06T03:45:08;7.18;;;6.40;;
54464;SDS011;40374;49.480;20.016;2022-07-06T03:47:37;7.20;;;6.50;;
54464;SDS011;40374;49.480;20.016;2022-07-06T03:50:05;6.97;;;6.28;;
54464;SDS011;40374;49.480;20.016;2022-07-06T03:52:34;12.57;;;6.10;;
54464;SDS011;40374;49.480;20.016;2022-07-06T03:55:02;7.63;;;6.50;;
54464;SDS011;40374;49.480;20.016;2022-07-06T03:57:30;6.35;;;5.75;;
54464;SDS011;40374;49.480;20.016;2022-07-06T04:00:02;6.78;;;6.05;;
54464;SDS011;40374;49.480;20.016;2022-07-06T04:02:40;7.40;;;6.70;;
54464;SDS011;40374;49.480;20.016;2022-07-06T04:05:14;8.48;;;7.07;;
54464;SDS011;40374;49.480;20.016;2022-07-06T04:07:42;9.77;;;7.00;;
54464;SDS011;40374;49.480;20.016;2022-07-06T04:10:10;11.18;;;8.10;;
54464;SDS011;40374;49.480;20.016;2022-07-06T04:12:41;10.40;;;7.85;;
54464;SDS011;40374;49.480;20.016;2022-07-06T04:15:14;11.98;;;7.93;;
54464;SDS011;40374;49.480;20.016;2022-07-06T04:17:42;8.90;;;7.85;;
54464;SDS011;40374;49.480;20.016;2022-07-06T04:20:38;11.18;;;8.52;;
54464;SDS011;40374;49.480;20.016;2022-07-06T04:23:06;8.80;;;7.20;;
54464;SDS011;40374;49.480;20.016;2022-07-06T04:25:34;7.15;;;6.45;;
54464;SDS011;40374;49.480;20.016;2022-07-06T04:28:02;14.18;;;8.93;;
54464;SDS011;40374;49.480;20.016;2022-07-06T04:30:31;8.18;;;7.28;;
54464;SDS011;40374;49.480;20.016;2022-07-06T04:33:00;8.50;;;7.18;;
54464;SDS011;40374;49.480;20.016;2022-07-06T04:35:31;7.22;;;6.40;;
54464;SDS011;40374;49.480;20.016;2022-07-06T04:37:59;8.38;;;7.10;;
54464;SDS011;40374;49.480;20.016;2022-07-06T04:40:28;11.63;;;7.13;;
54464;SDS011;40374;49.480;20.016;2022-07-06T04:43:00;9.80;;;8.25;;
54464;SDS011;40374;49.480;20.016;2022-07-06T04:45:29;11.32;;;8.95;;
54464;SDS011;40374;49.480;20.016;2022-07-06T04:47:56;14.02;;;11.40;;
54464;SDS011;40374;49.480;20.016;2022-07-06T04:50:24;16.70;;;12.25;;
54464;SDS011;40374;49.480;20.016;2022-07-06T04:52:54;19.08;;;11.95;;
54464;SDS011;40374;49.480;20.016;2022-07-06T04:55:23;17.52;;;11.63;;
54464;SDS011;40374;49.480;20.016;2022-07-06T04:57:51;15.05;;;12.43;;
54464;SDS011;40374;49.480;20.016;2022-07-06T05:00:20;15.63;;;11.80;;
54464;SDS011;40374;49.480;20.016;2022-07-06T05:02:49;15.13;;;11.05;;
54464;SDS011;40374;49.480;20.016;2022-07-06T05:05:19;13.57;;;10.57;;
54464;SDS011;40374;49.480;20.016;2022-07-06T05:07:49;15.23;;;8.65;;
54464;SDS011;40374;49.480;20.016;2022-07-06T05:10:16;8.45;;;7.53;;
54464;SDS011;40374;49.480;20.016;2022-07-06T05:12:47;7.22;;;6.30;;
54464;SDS011;40374;49.480;20.016;2022-07-06T05:15:16;10.00;;;8.05;;
54464;SDS011;40374;49.480;20.016;2022-07-06T05:17:43;8.35;;;7.45;;
54464;SDS011;40374;49.480;20.016;2022-07-06T05:20:12;7.78;;;6.90;;
54464;SDS011;40374;49.480;20.016;2022-07-06T05:22:42;6.88;;;6.18;;
54464;SDS011;40374;49.480;20.016;2022-07-06T05:25:16;9.05;;;6.07;;
54464;SDS011;40374;49.480;20.016;2022-07-06T05:27:44;10.50;;;7.57;;
54464;SDS011;40374;49.480;20.016;2022-07-06T05:30:12;8.38;;;7.13;;
54464;SDS011;40374;49.480;20.016;2022-07-06T05:32:40;6.95;;;5.95;;
54464;SDS011;40374;49.480;20.016;2022-07-06T05:35:08;6.43;;;4.95;;
54464;SDS011;40374;49.480;20.016;2022-07-06T05:37:56;8.02;;;5.57;;
54464;SDS011;40374;49.480;20.016;2022-07-06T05:40:23;5.10;;;4.60;;
54464;SDS011;40374;49.480;20.016;2022-07-06T05:42:52;8.95;;;5.75;;
54464;SDS011;40374;49.480;20.016;2022-07-06T05:45:20;8.07;;;4.60;;
54464;SDS011;40374;49.480;20.016;2022-07-06T05:47:51;5.35;;;4.85;;
54464;SDS011;40374;49.480;20.016;2022-07-06T05:50:38;9.25;;;5.30;;
54464;SDS011;40374;49.480;20.016;2022-07-06T05:53:07;5.55;;;4.93;;
54464;SDS011;40374;49.480;20.016;2022-07-06T05:55:46;5.88;;;4.35;;
54464;SDS011;40374;49.480;20.016;2022-07-06T05:58:15;4.85;;;4.10;;
54464;SDS011;40374;49.480;20.016;2022-07-06T06:00:44;9.75;;;4.28;;
54464;SDS011;40374;49.480;20.016;2022-07-06T06:03:16;5.38;;;4.57;;
54464;SDS011;40374;49.480;20.016;2022-07-06T06:05:44;5.60;;;4.28;;
54464;SDS011;40374;49.480;20.016;2022-07-06T06:08:13;4.03;;;3.60;;
54464;SDS011;40374;49.480;20.016;2022-07-06T06:10:41;5.18;;;4.50;;
54464;SDS011;40374;49.480;20.016;2022-07-06T06:13:12;4.80;;;4.30;;
54464;SDS011;40374;49.480;20.016;2022-07-06T06:15:40;7.38;;;4.75;;
54464;SDS011;40374;49.480;20.016;2022-07-06T06:18:08;5.72;;;4.45;;
54464;SDS011;40374;49.480;20.016;2022-07-06T06:20:35;5.68;;;4.07;;
54464;SDS011;40374;49.480;20.016;2022-07-06T06:23:02;4.32;;;3.35;;
54464;SDS011;40374;49.480;20.016;2022-07-06T06:25:35;5.63;;;4.47;;
54464;SDS011;40374;49.480;20.016;2022-07-06T06:28:05;5.55;;;4.05;;
54464;SDS011;40374;49.480;20.016;2022-07-06T06:30:33;5.18;;;4.10;;
54464;SDS011;40374;49.480;20.016;2022-07-06T06:35:45;6.35;;;3.92;;
54464;SDS011;40374;49.480;20.016;2022-07-06T06:38:14;4.93;;;3.97;;
54464;SDS011;40374;49.480;20.016;2022-07-06T06:40:42;5.60;;;3.35;;
54464;SDS011;40374;49.480;20.016;2022-07-06T06:43:10;6.55;;;3.90;;
54464;SDS011;40374;49.480;20.016;2022-07-06T06:45:54;5.93;;;4.22;;
54464;SDS011;40374;49.480;20.016;2022-07-06T06:48:21;5.47;;;4.00;;
54464;SDS011;40374;49.480;20.016;2022-07-06T06:50:49;7.43;;;4.72;;
54464;SDS011;40374;49.480;20.016;2022-07-06T06:53:17;4.80;;;4.25;;
54464;SDS011;40374;49.480;20.016;2022-07-06T06:55:44;6.45;;;4.40;;
54464;SDS011;40374;49.480;20.016;2022-07-06T06:58:12;6.88;;;4.90;;
54464;SDS011;40374;49.480;20.016;2022-07-06T07:00:39;5.72;;;4.13;;
54464;SDS011;40374;49.480;20.016;2022-07-06T07:03:07;11.43;;;4.40;;
54464;SDS011;40374;49.480;20.016;2022-07-06T07:05:34;4.80;;;4.28;;
54464;SDS011;40374;49.480;20.016;2022-07-06T07:08:02;5.22;;;4.32;;
54464;SDS011;40374;49.480;20.016;2022-07-06T07:10:31;7.60;;;4.82;;
54464;SDS011;40374;49.480;20.016;2022-07-06T07:13:00;7.85;;;4.00;;
54464;SDS011;40374;49.480;20.016;2022-07-06T07:15:28;5.97;;;4.57;;
54464;SDS011;40374;49.480;20.016;2022-07-06T07:17:56;6.38;;;4.10;;
54464;SDS011;40374;49.480;20.016;2022-07-06T07:20:23;4.47;;;3.60;;
54464;SDS011;40374;49.480;20.016;2022-07-06T07:22:52;7.32;;;3.78;;
54464;SDS011;40374;49.480;20.016;2022-07-06T07:25:19;6.50;;;3.15;;
54464;SDS011;40374;49.480;20.016;2022-07-06T07:27:47;4.28;;;3.60;;
54464;SDS011;40374;49.480;20.016;2022-07-06T07:30:14;4.25;;;3.05;;
54464;SDS011;40374;49.480;20.016;2022-07-06T07:32:42;3.65;;;2.47;;
54464;SDS011;40374;49.480;20.016;2022-07-06T07:35:10;5.30;;;2.95;;
54464;SDS011;40374;49.480;20.016;2022-07-06T07:37:38;3.15;;;2.38;;
54464;SDS011;40374;49.480;20.016;2022-07-06T07:40:05;2.75;;;2.45;;
54464;SDS011;40374;49.480;20.016;2022-07-06T07:42:33;3.10;;;1.95;;
54464;SDS011;40374;49.480;20.016;2022-07-06T07:45:01;1.73;;;1.63;;
54464;SDS011;40374;49.480;20.016;2022-07-06T07:47:28;1.65;;;1.55;;
54464;SDS011;40374;49.480;20.016;2022-07-06T07:49:55;3.22;;;1.75;;
54464;SDS011;40374;49.480;20.016;2022-07-06T07:52:23;1.98;;;1.77;;
54464;SDS011;40374;49.480;20.016;2022-07-06T07:54:50;2.00;;;1.30;;
54464;SDS011;40374;49.480;20.016;2022-07-06T07:57:39;1.95;;;1.42;;
54464;SDS011;40374;49.480;20.016;2022-07-06T08:00:07;2.45;;;1.70;;
54464;SDS011;40374;49.480;20.016;2022-07-06T08:02:38;7.05;;;3.15;;
54464;SDS011;40374;49.480;20.016;2022-07-06T08:05:06;4.53;;;1.73;;
54464;SDS011;40374;49.480;20.016;2022-07-06T08:07:33;2.08;;;1.88;;
54464;SDS011;40374;49.480;20.016;2022-07-06T08:10:01;2.00;;;1.70;;
54464;SDS011;40374;49.480;20.016;2022-07-06T08:12:29;2.38;;;1.85;;
54464;SDS011;40374;49.480;20.016;2022-07-06T08:14:56;2.97;;;2.22;;
54464;SDS011;40374;49.480;20.016;2022-07-06T08:17:24;2.75;;;1.95;;
54464;SDS011;40374;49.480;20.016;2022-07-06T08:19:52;1.90;;;1.75;;
54464;SDS011;40374;49.480;20.016;2022-07-06T08:22:19;2.92;;;1.80;;
54464;SDS011;40374;49.480;20.016;2022-07-06T08:24:46;2.03;;;1.45;;
54464;SDS011;40374;49.480;20.016;2022-07-06T08:27:15;1.80;;;1.60;;
54464;SDS011;40374;49.480;20.016;2022-07-06T08:29:45;3.67;;;1.60;;
54464;SDS011;40374;49.480;20.016;2022-07-06T08:32:16;3.58;;;2.03;;
54464;SDS011;40374;49.480;20.016;2022-07-06T08:35:00;7.03;;;2.35;;
54464;SDS011;40374;49.480;20.016;2022-07-06T08:37:28;7.05;;;2.15;;
54464;SDS011;40374;49.480;20.016;2022-07-06T08:39:57;1.85;;;1.50;;
54464;SDS011;40374;49.480;20.016;2022-07-06T08:42:32;5.10;;;1.73;;
54464;SDS011;40374;49.480;20.016;2022-07-06T08:45:03;2.78;;;1.65;;
54464;SDS011;40374;49.480;20.016;2022-07-06T08:47:35;9.48;;;2.90;;
54464;SDS011;40374;49.480;20.016;2022-07-06T08:50:04;2.20;;;1.90;;
54464;SDS011;40374;49.480;20.016;2022-07-06T08:52:32;5.05;;;1.85;;
54464;SDS011;40374;49.480;20.016;2022-07-06T08:55:01;6.13;;;1.95;;
54464;SDS011;40374;49.480;20.016;2022-07-06T08:57:30;1.98;;;1.88;;
54464;SDS011;40374;49.480;20.016;2022-07-06T08:59:57;3.47;;;2.53;;
54464;SDS011;40374;49.480;20.016;2022-07-06T09:02:25;2.22;;;1.85;;
54464;SDS011;40374;49.480;20.016;2022-07-06T09:04:54;5.10;;;2.20;;
54464;SDS011;40374;49.480;20.016;2022-07-06T09:07:27;5.22;;;2.25;;
54464;SDS011;40374;49.480;20.016;2022-07-06T09:10:19;2.63;;;2.15;;
54464;SDS011;40374;49.480;20.016;2022-07-06T09:12:51;5.70;;;2.20;;
54464;SDS011;40374;49.480;20.016;2022-07-06T09:15:23;2.25;;;2.05;;
54464;SDS011;40374;49.480;20.016;2022-07-06T09:17:55;4.13;;;1.70;;
54464;SDS011;40374;49.480;20.016;2022-07-06T09:20:25;6.15;;;2.33;;
54464;SDS011;40374;49.480;20.016;2022-07-06T09:23:03;2.58;;;2.33;;
54464;SDS011;40374;49.480;20.016;2022-07-06T09:25:38;2.35;;;1.80;;
54464;SDS011;40374;49.480;20.016;2022-07-06T09:28:06;3.47;;;2.72;;
54464;SDS011;40374;49.480;20.016;2022-07-06T09:30:33;7.30;;;2.33;;
54464;SDS011;40374;49.480;20.016;2022-07-06T09:33:07;4.90;;;2.90;;
54464;SDS011;40374;49.480;20.016;2022-07-06T09:35:36;3.45;;;2.10;;
54464;SDS011;40374;49.480;20.016;2022-07-06T09:38:06;5.20;;;3.03;;
54464;SDS011;40374;49.480;20.016;2022-07-06T09:40:40;4.55;;;3.38;;
54464;SDS011;40374;49.480;20.016;2022-07-06T09:43:19;7.15;;;3.47;;
54464;SDS011;40374;49.480;20.016;2022-07-06T09:45:56;4.32;;;3.10;;
54464;SDS011;40374;49.480;20.016;2022-07-06T09:48:25;6.78;;;3.33;;
54464;SDS011;40374;49.480;20.016;2022-07-06T09:50:56;5.35;;;3.40;;
54464;SDS011;40374;49.480;20.016;2022-07-06T09:53:29;3.72;;;3.25;;
54464;SDS011;40374;49.480;20.016;2022-07-06T09:55:57;4.97;;;3.25;;
54464;SDS011;40374;49.480;20.016;2022-07-06T09:58:28;10.13;;;4.70;;
54464;SDS011;40374;49.480;20.016;2022-07-06T10:01:26;8.20;;;4.80;;
54464;SDS011;40374;49.480;20.016;2022-07-06T10:03:54;7.22;;;4.40;;
54464;SDS011;40374;49.480;20.016;2022-07-06T10:06:23;5.03;;;4.20;;
54464;SDS011;40374;49.480;20.016;2022-07-06T10:08:53;7.65;;;4.30;;
54464;SDS011;40374;49.480;20.016;2022-07-06T10:11:22;8.45;;;4.20;;
54464;SDS011;40374;49.480;20.016;2022-07-06T10:13:53;5.70;;;4.47;;
54464;SDS011;40374;49.480;20.016;2022-07-06T10:16:23;12.00;;;5.15;;
54464;SDS011;40374;49.480;20.016;2022-07-06T10:18:52;8.63;;;5.03;;
54464;SDS011;40374;49.480;20.016;2022-07-06T10:21:22;7.90;;;5.03;;
54464;SDS011;40374;49.480;20.016;2022-07-06T10:23:51;10.85;;;6.97;;
54464;SDS011;40374;49.480;20.016;2022-07-06T10:26:19;17.45;;;9.02;;
54464;SDS011;40374;49.480;20.016;2022-07-06T10:28:50;11.43;;;8.38;;
54464;SDS011;40374;49.480;20.016;2022-07-06T10:31:19;14.95;;;10.15;;
54464;SDS011;40374;49.480;20.016;2022-07-06T10:33:48;11.02;;;9.48;;
54464;SDS011;40374;49.480;20.016;2022-07-06T10:36:16;14.43;;;11.52;;
54464;SDS011;40374;49.480;20.016;2022-07-06T10:38:46;19.95;;;10.85;;
54464;SDS011;40374;49.480;20.016;2022-07-06T10:41:17;14.95;;;12.27;;
54464;SDS011;40374;49.480;20.016;2022-07-06T10:43:46;15.05;;;11.88;;
54464;SDS011;40374;49.480;20.016;2022-07-06T10:46:14;18.25;;;11.38;;
54464;SDS011;40374;49.480;20.016;2022-07-06T10:48:44;17.00;;;11.88;;
54464;SDS011;40374;49.480;20.016;2022-07-06T10:51:13;14.85;;;10.80;;
54464;SDS011;40374;49.480;20.016;2022-07-06T10:53:56;14.32;;;12.15;;
54464;SDS011;40374;49.480;20.016;2022-07-06T10:56:39;15.85;;;11.38;;
54464;SDS011;40374;49.480;20.016;2022-07-06T10:59:09;16.40;;;11.70;;
54464;SDS011;40374;49.480;20.016;2022-07-06T11:01:38;15.65;;;11.98;;
54464;SDS011;40374;49.480;20.016;2022-07-06T11:04:13;15.00;;;11.02;;
54464;SDS011;40374;49.480;20.016;2022-07-06T11:06:43;20.55;;;11.80;;
54464;SDS011;40374;49.480;20.016;2022-07-06T11:09:12;15.20;;;11.10;;
54464;SDS011;40374;49.480;20.016;2022-07-06T11:11:42;15.32;;;10.82;;
54464;SDS011;40374;49.480;20.016;2022-07-06T11:14:13;13.55;;;9.88;;
54464;SDS011;40374;49.480;20.016;2022-07-06T11:21:49;13.60;;;9.32;;
54464;SDS011;40374;49.480;20.016;2022-07-06T11:24:24;15.63;;;9.82;;
54464;SDS011;40374;49.480;20.016;2022-07-06T11:26:54;15.07;;;9.63;;
54464;SDS011;40374;49.480;20.016;2022-07-06T11:29:24;12.65;;;9.27;;
54464;SDS011;40374;49.480;20.016;2022-07-06T11:31:56;12.95;;;9.10;;
54464;SDS011;40374;49.480;20.016;2022-07-06T11:34:26;12.13;;;9.27;;
54464;SDS011;40374;49.480;20.016;2022-07-06T11:36:59;12.45;;;8.27;;
54464;SDS011;40374;49.480;20.016;2022-07-06T11:42:01;10.02;;;6.57;;
54464;SDS011;40374;49.480;20.016;2022-07-06T11:44:31;13.27;;;7.65;;
54464;SDS011;40374;49.480;20.016;2022-07-06T11:46:59;11.90;;;7.05;;
54464;SDS011;40374;49.480;20.016;2022-07-06T11:49:32;11.55;;;6.65;;
54464;SDS011;40374;49.480;20.016;2022-07-06T11:54:39;8.65;;;5.75;;
54464;SDS011;40374;49.480;20.016;2022-07-06T11:57:08;8.48;;;6.00;;
54464;SDS011;40374;49.480;20.016;2022-07-06T11:59:38;7.57;;;5.30;;
54464;SDS011;40374;49.480;20.016;2022-07-06T12:04:36;5.60;;;4.70;;
54464;SDS011;40374;49.480;20.016;2022-07-06T12:07:15;7.47;;;5.15;;
54464;SDS011;40374;49.480;20.016;2022-07-06T12:09:44;8.70;;;4.13;;
54464;SDS011;40374;49.480;20.016;2022-07-06T12:12:13;13.18;;;4.63;;
54464;SDS011;40374;49.480;20.016;2022-07-06T12:14:43;4.35;;;3.55;;
54464;SDS011;40374;49.480;20.016;2022-07-06T12:17:12;7.50;;;3.50;;
54464;SDS011;40374;49.480;20.016;2022-07-06T12:19:42;4.65;;;3.10;;
54464;SDS011;40374;49.480;20.016;2022-07-06T12:22:10;8.85;;;4.70;;
54464;SDS011;40374;49.480;20.016;2022-07-06T12:24:42;8.40;;;3.03;;
54464;SDS011;40374;49.480;20.016;2022-07-06T12:27:13;6.77;;;2.90;;
54464;SDS011;40374;49.480;20.016;2022-07-06T12:29:42;7.80;;;3.53;;
54464;SDS011;40374;49.480;20.016;2022-07-06T12:32:16;6.15;;;3.00;;
54464;SDS011;40374;49.480;20.016;2022-07-06T12:35:07;13.07;;;3.53;;
54464;SDS011;40374;49.480;20.016;2022-07-06T12:37:36;8.20;;;3.20;;
54464;SDS011;40374;49.480;20.016;2022-07-06T12:40:13;6.43;;;3.22;;
54464;SDS011;40374;49.480;20.016;2022-07-06T12:42:45;13.00;;;3.70;;
54464;SDS011;40374;49.480;20.016;2022-07-06T12:45:14;7.28;;;2.60;;
54464;SDS011;40374;49.480;20.016;2022-07-06T12:47:48;4.97;;;2.67;;
54464;SDS011;40374;49.480;20.016;2022-07-06T12:50:32;5.22;;;2.95;;
54464;SDS011;40374;49.480;20.016;2022-07-06T12:53:05;3.33;;;2.42;;
54464;SDS011;40374;49.480;20.016;2022-07-06T12:56:07;6.28;;;2.10;;
54464;SDS011;40374;49.480;20.016;2022-07-06T12:58:36;7.05;;;2.00;;
54464;SDS011;40374;49.480;20.016;2022-07-06T13:01:03;7.28;;;2.60;;
54464;SDS011;40374;49.480;20.016;2022-07-06T13:03:39;3.88;;;2.08;;
54464;SDS011;40374;49.480;20.016;2022-07-06T13:06:08;7.10;;;2.15;;
54464;SDS011;40374;49.480;20.016;2022-07-06T13:08:35;6.88;;;2.10;;
54464;SDS011;40374;49.480;20.016;2022-07-06T13:11:03;10.80;;;1.85;;
54464;SDS011;40374;49.480;20.016;2022-07-06T13:13:31;2.63;;;2.33;;
54464;SDS011;40374;49.480;20.016;2022-07-06T13:15:58;3.38;;;1.83;;
54464;SDS011;40374;49.480;20.016;2022-07-06T13:18:26;2.92;;;1.67;;
54464;SDS011;40374;49.480;20.016;2022-07-06T13:20:53;2.97;;;1.85;;
54464;SDS011;40374;49.480;20.016;2022-07-06T13:23:21;2.25;;;2.05;;
54464;SDS011;40374;49.480;20.016;2022-07-06T13:25:48;10.07;;;1.95;;
54464;SDS011;40374;49.480;20.016;2022-07-06T13:28:16;7.03;;;2.60;;
54464;SDS011;40374;49.480;20.016;2022-07-06T13:30:44;4.82;;;2.50;;
54464;SDS011;40374;49.480;20.016;2022-07-06T13:33:11;4.97;;;2.55;;
54464;SDS011;40374;49.480;20.016;2022-07-06T13:35:39;3.97;;;2.50;;
54464;SDS011;40374;49.480;20.016;2022-07-06T13:38:06;4.95;;;2.47;;
54464;SDS011;40374;49.480;20.016;2022-07-06T13:40:41;5.03;;;2.60;;
54464;SDS011;40374;49.480;20.016;2022-07-06T13:43:08;4.65;;;2.50;;
54464;SDS011;40374;49.480;20.016;2022-07-06T13:45:35;5.97;;;2.45;;
54464;SDS011;40374;49.480;20.016;2022-07-06T13:48:04;8.02;;;1.92;;
54464;SDS011;40374;49.480;20.016;2022-07-06T13:50:32;5.57;;;1.85;;
54464;SDS011;40374;49.480;20.016;2022-07-06T13:52:59;6.18;;;1.83;;
54464;SDS011;40374;49.480;20.016;2022-07-06T13:55:27;4.32;;;2.10;;
54464;SDS011;40374;49.480;20.016;2022-07-06T13:57:54;3.58;;;2.00;;
54464;SDS011;40374;49.480;20.016;2022-07-06T14:00:22;6.25;;;2.05;;
54464;SDS011;40374;49.480;20.016;2022-07-06T14:02:50;3.08;;;2.15;;
54464;SDS011;40374;49.480;20.016;2022-07-06T14:05:17;5.05;;;2.15;;
54464;SDS011;40374;49.480;20.016;2022-07-06T14:07:45;2.67;;;1.83;;
54464;SDS011;40374;49.480;20.016;2022-07-06T14:10:13;13.23;;;2.17;;
54464;SDS011;40374;49.480;20.016;2022-07-06T14:12:40;4.10;;;1.90;;
54464;SDS011;40374;49.480;20.016;2022-07-06T14:15:07;2.67;;;1.60;;
54464;SDS011;40374;49.480;20.016;2022-07-06T14:17:35;1.85;;;1.70;;
54464;SDS011;40374;49.480;20.016;2022-07-06T14:20:03;18.35;;;1.92;;
54464;SDS011;40374;49.480;20.016;2022-07-06T14:22:30;5.22;;;2.67;;
54464;SDS011;40374;49.480;20.016;2022-07-06T14:24:58;5.43;;;1.70;;
54464;SDS011;40374;49.480;20.016;2022-07-06T14:27:26;4.53;;;1.95;;
54464;SDS011;40374;49.480;20.016;2022-07-06T14:29:54;11.07;;;2.22;;
54464;SDS011;40374;49.480;20.016;2022-07-06T14:32:22;3.25;;;1.30;;
54464;SDS011;40374;49.480;20.016;2022-07-06T14:34:49;4.95;;;1.05;;
54464;SDS011;40374;49.480;20.016;2022-07-06T14:37:17;2.42;;;1.15;;
54464;SDS011;40374;49.480;20.016;2022-07-06T14:39:46;5.45;;;1.65;;
54464;SDS011;40374;49.480;20.016;2022-07-06T14:42:15;4.03;;;1.33;;
54464;SDS011;40374;49.480;20.016;2022-07-06T14:44:43;1.02;;;1.02;;
54464;SDS011;40374;49.480;20.016;2022-07-06T14:47:10;2.53;;;1.20;;
54464;SDS011;40374;49.480;20.016;2022-07-06T14:49:38;4.95;;;1.23;;
54464;SDS011;40374;49.480;20.016;2022-07-06T14:52:06;1.30;;;1.02;;
54464;SDS011;40374;49.480;20.016;2022-07-06T14:54:33;5.35;;;1.23;;
54464;SDS011;40374;49.480;20.016;2022-07-06T14:57:01;5.65;;;1.33;;
54464;SDS011;40374;49.480;20.016;2022-07-06T14:59:29;1.20;;;1.10;;
54464;SDS011;40374;49.480;20.016;2022-07-06T15:01:57;4.25;;;1.05;;